createdAt,value
2019-04-05T00:00:20.339Z,41.37
2019-04-05T00:02:50.856Z,40.70
2019-04-05T00:05:21.368Z,40.37
2019-04-05T00:07:51.863Z,40.17
2019-04-05T00:10:22.427Z,41.13
2019-04-05T00:12:52.952Z,38.43
2019-04-05T00:15:23.396Z,39.30
2019-04-05T00:17:53.717Z,39.57
2019-04-05T00:20:24.283Z,40.03
2019-04-05T00:22:54.771Z,38.93
2019-04-05T00:25:25.197Z,41.03
2019-04-05T00:27:55.735Z,38.27
2019-04-05T00:30:26.088Z,40.27
2019-04-05T00:32:56.478Z,38.27
2019-04-05T00:35:26.957Z,38.00
2019-04-05T00:37:57.283Z,39.57
2019-04-05T00:40:27.644Z,38.37
2019-04-05T00:42:58.071Z,36.70
2019-04-05T00:45:28.900Z,36.87
2019-04-05T00:47:59.367Z,38.40
2019-04-05T00:50:29.829Z,38.60
2019-04-05T00:53:00.196Z,36.63
2019-04-05T00:55:30.564Z,36.47
2019-04-05T00:58:00.970Z,40.87
2019-04-05T01:00:33.044Z,39.83
2019-04-05T01:03:03.527Z,37.77
2019-04-05T01:05:34.453Z,41.13
2019-04-05T01:08:04.885Z,40.50
2019-04-05T01:10:35.347Z,37.17
2019-04-05T01:13:05.804Z,34.93
2019-04-05T01:15:41.102Z,35.07
2019-04-05T01:18:08.484Z,35.00
2019-04-05T01:20:40.504Z,37.50
2019-04-05T01:23:12.803Z,34.83
2019-04-05T01:25:43.238Z,35.57
2019-04-05T01:28:13.758Z,33.60
2019-04-05T01:30:44.244Z,36.83
2019-04-05T01:33:14.824Z,34.73
2019-04-05T01:35:45.317Z,34.90
2019-04-05T01:38:15.714Z,35.53
2019-04-05T01:40:47.863Z,36.23
2019-04-05T01:43:18.769Z,36.40
2019-04-05T01:45:53.910Z,35.87
2019-04-05T01:48:21.447Z,35.47
2019-04-05T01:50:51.948Z,35.90
2019-04-05T01:53:22.361Z,33.77
2019-04-05T01:55:52.912Z,33.50
2019-04-05T01:58:23.308Z,31.10
2019-04-05T02:00:53.742Z,35.43
2019-04-05T02:03:24.137Z,34.00
2019-04-05T02:05:54.445Z,32.13
2019-04-05T02:08:30.223Z,33.37
2019-04-05T02:11:01.006Z,32.67
2019-04-05T02:13:32.159Z,33.97
2019-04-05T02:16:06.673Z,29.40
2019-04-05T02:18:36.632Z,31.80
2019-04-05T02:21:07.822Z,33.13
2019-04-05T02:23:38.537Z,31.00
2019-04-05T02:26:09.099Z,32.60
2019-04-05T02:28:40.017Z,29.83
2019-04-05T02:31:11.645Z,31.07
2019-04-05T02:33:42.091Z,31.10
2019-04-05T02:36:12.707Z,34.33
2019-04-05T02:38:43.924Z,32.63
2019-04-05T02:41:15.492Z,31.57
2019-04-05T02:43:48.904Z,32.80
2019-04-05T02:46:23.859Z,34.57
2019-04-05T02:48:53.660Z,32.80
2019-04-05T02:51:26.632Z,35.10
2019-04-05T02:53:58.884Z,33.77
2019-04-05T02:56:31.253Z,34.17
2019-04-05T02:59:04.074Z,35.60
2019-04-05T03:01:35.038Z,34.00
2019-04-05T03:04:05.924Z,33.63
2019-04-05T03:06:36.952Z,34.23
2019-04-05T03:09:08.659Z,33.50
2019-04-05T03:11:41.498Z,34.83
2019-04-05T03:14:13.383Z,34.77
2019-04-05T03:16:47.219Z,33.37
2019-04-05T03:19:23.963Z,36.73
2019-04-05T03:22:02.719Z,36.70
2019-04-05T03:24:36.520Z,34.23
2019-04-05T03:27:11.951Z,35.40
2019-04-05T03:29:44.308Z,33.77
2019-04-05T03:32:15.989Z,33.60
2019-04-05T03:34:46.868Z,37.03
2019-04-05T03:37:18.554Z,34.97
2019-04-05T03:39:49.075Z,35.10
2019-04-05T03:42:20.350Z,35.13
2019-04-05T03:44:51.370Z,35.20
2019-04-05T03:47:22.586Z,35.67
2019-04-05T03:49:54.289Z,34.17
2019-04-05T03:52:25.517Z,34.77
2019-04-05T03:54:56.349Z,35.53
2019-04-05T03:57:26.863Z,33.80
2019-04-05T03:59:57.838Z,33.20
2019-04-05T04:02:28.492Z,33.83
2019-04-05T04:04:59.287Z,33.40
2019-04-05T04:07:30.180Z,34.60
2019-04-05T04:10:03.436Z,35.33
2019-04-05T04:12:34.544Z,33.77
2019-04-05T04:15:15.138Z,32.97
2019-04-05T04:17:46.798Z,30.20
2019-04-05T04:20:32.765Z,30.97
2019-04-05T04:23:05.247Z,30.83
2019-04-05T04:25:37.721Z,33.43
2019-04-05T04:28:11.679Z,30.93
2019-04-05T04:30:42.275Z,32.07
2019-04-05T04:33:13.498Z,33.13
2019-04-05T04:35:46.773Z,32.20
2019-04-05T04:38:18.509Z,34.07
2019-04-05T04:40:49.839Z,32.07
2019-04-05T04:43:21.643Z,32.37
2019-04-05T04:45:52.115Z,32.30
2019-04-05T04:48:22.869Z,31.97
2019-04-05T04:50:54.394Z,32.63
2019-04-05T04:53:25.686Z,31.53
2019-04-05T04:55:56.598Z,34.90
2019-04-05T04:58:27.678Z,34.60
2019-04-05T05:00:58.739Z,31.60
2019-04-05T05:03:29.757Z,32.07
2019-04-05T05:06:02.403Z,30.57
2019-04-05T05:08:33.587Z,33.03
2019-04-05T05:11:13.960Z,30.03
2019-04-05T05:13:37.958Z,31.60
2019-04-05T05:16:09.002Z,30.90
2019-04-05T05:18:40.628Z,28.43
2019-04-05T05:21:11.650Z,27.23
2019-04-05T05:23:43.534Z,28.70
2019-04-05T05:26:14.674Z,30.20
2019-04-05T05:28:46.267Z,41.33
2019-04-05T05:31:17.670Z,78.40
2019-04-05T05:33:49.216Z,33.83
2019-04-05T05:36:21.312Z,29.53
2019-04-05T05:38:52.972Z,29.40
2019-04-05T05:41:26.359Z,29.17
2019-04-05T05:43:58.430Z,26.53
2019-04-05T05:46:30.034Z,27.07
2019-04-05T05:49:01.388Z,27.10
2019-04-05T05:51:34.918Z,25.80
2019-04-05T05:54:08.785Z,26.63
2019-04-05T05:56:41.939Z,25.43
2019-04-05T05:59:13.957Z,27.03
2019-04-05T06:01:46.503Z,26.23
2019-04-05T06:04:18.770Z,28.30
2019-04-05T06:06:49.612Z,26.40
2019-04-05T06:09:21.352Z,25.10
2019-04-05T06:11:52.410Z,25.27
2019-04-05T06:14:23.594Z,25.63
2019-04-05T06:16:54.763Z,27.00
2019-04-05T06:19:25.978Z,27.67
2019-04-05T06:21:57.114Z,29.93
2019-04-05T06:24:29.970Z,26.70
2019-04-05T06:27:04.974Z,28.53
2019-04-05T06:29:37.617Z,29.07
2019-04-05T06:32:08.730Z,28.93
2019-04-05T06:34:41.360Z,30.63
2019-04-05T06:37:14.149Z,29.73
2019-04-05T06:39:49.893Z,30.47
2019-04-05T06:42:21.949Z,30.80
2019-04-05T06:44:55.453Z,29.77
2019-04-05T06:47:30.472Z,30.23
2019-04-05T06:50:04.403Z,32.77
2019-04-05T06:52:37.479Z,31.03
2019-04-05T06:55:20.314Z,33.47
2019-04-05T06:57:52.370Z,33.17
2019-04-05T07:00:30.398Z,32.87
2019-04-05T07:03:07.578Z,33.60
2019-04-05T07:05:41.983Z,33.07
2019-04-05T07:08:13.400Z,32.17
2019-04-05T07:10:45.894Z,32.50
2019-04-05T07:13:20.156Z,33.00
2019-04-05T07:15:52.888Z,31.80
2019-04-05T07:18:35.456Z,31.10
2019-04-05T07:21:05.492Z,32.53
2019-04-05T07:23:36.972Z,31.13
2019-04-05T07:26:08.417Z,31.60
2019-04-05T07:28:40.625Z,32.17
2019-04-05T07:31:13.698Z,29.83
2019-04-05T07:33:46.005Z,30.57
2019-04-05T07:36:19.390Z,29.80
2019-04-05T07:39:09.663Z,28.80
2019-04-05T07:41:41.385Z,28.47
2019-04-05T07:44:14.349Z,28.93
2019-04-05T07:46:46.734Z,29.07
2019-04-05T07:49:19.305Z,28.27
2019-04-05T07:51:50.997Z,28.43
2019-04-05T07:54:22.168Z,29.93
2019-04-05T07:56:54.802Z,28.80
2019-04-05T07:59:26.216Z,27.87
2019-04-05T08:06:16.824Z,27.50
2019-04-05T08:09:11.172Z,27.10
2019-04-05T08:11:39.839Z,27.80
2019-04-05T08:14:14.235Z,24.87
2019-04-05T08:16:45.649Z,24.80
2019-04-05T08:19:18.344Z,23.90
2019-04-05T08:21:50.345Z,24.13
2019-04-05T08:24:22.167Z,24.00
2019-04-05T08:26:54.495Z,22.37
2019-04-05T08:29:27.249Z,22.33
2019-04-05T08:31:59.560Z,21.80
2019-04-05T08:34:31.484Z,23.13
2019-04-05T08:37:05.408Z,21.03
2019-04-05T08:39:37.309Z,20.77
2019-04-05T08:42:17.872Z,20.43
2019-04-05T08:44:52.378Z,21.57
2019-04-05T08:47:25.115Z,20.27
2019-04-05T08:49:57.338Z,20.37
2019-04-05T08:52:32.579Z,19.57
2019-04-05T08:55:07.168Z,21.53
2019-04-05T08:57:41.910Z,20.10
2019-04-05T09:00:15.876Z,20.97
2019-04-05T09:02:47.838Z,20.83
2019-04-05T09:05:19.632Z,22.17
2019-04-05T09:07:50.926Z,20.10
2019-04-05T09:10:21.771Z,20.57
2019-04-05T09:12:52.970Z,21.40
2019-04-05T09:15:26.362Z,22.10
2019-04-05T09:17:57.311Z,22.13
2019-04-05T09:20:30.205Z,20.90
2019-04-05T09:23:01.471Z,21.07
2019-04-05T09:25:32.511Z,20.23
2019-04-05T09:28:04.444Z,20.63
2019-04-05T09:30:35.271Z,19.63
2019-04-05T09:33:10.089Z,20.53
2019-04-05T09:35:47.116Z,21.00
2019-04-05T09:38:18.064Z,21.87
2019-04-05T09:40:52.983Z,21.17
2019-04-05T09:43:25.999Z,24.43
2019-04-05T09:45:57.418Z,20.93
2019-04-05T09:48:35.564Z,22.07
2019-04-05T09:51:07.245Z,22.97
2019-04-05T09:53:41.361Z,21.90
2019-04-05T09:56:12.568Z,21.17
2019-04-05T09:58:49.245Z,21.40
2019-04-05T10:01:28.270Z,21.90
2019-04-05T10:04:00.401Z,20.57
2019-04-05T10:06:31.933Z,21.43
2019-04-05T10:09:04.819Z,21.80
2019-04-05T10:11:37.939Z,21.27
2019-04-05T10:14:12.878Z,21.20
2019-04-05T10:16:44.895Z,22.43
2019-04-05T10:19:18.346Z,21.83
2019-04-05T10:21:59.759Z,22.10
2019-04-05T10:24:33.214Z,21.47
2019-04-05T10:27:06.531Z,21.83
2019-04-05T10:29:38.842Z,19.60
2019-04-05T10:32:10.796Z,21.30
2019-04-05T10:34:41.827Z,21.43
2019-04-05T10:37:19.004Z,20.23
2019-04-05T10:39:51.345Z,19.93
2019-04-05T10:42:37.949Z,19.30
2019-04-05T10:45:13.346Z,19.10
2019-04-05T10:47:47.970Z,21.47
2019-04-05T10:50:21.696Z,19.30
2019-04-05T10:52:57.549Z,19.43
2019-04-05T10:55:33.672Z,20.60
2019-04-05T10:58:05.943Z,21.03
2019-04-05T11:00:39.935Z,21.13
2019-04-05T11:03:13.915Z,21.63
2019-04-05T11:05:49.429Z,20.80
2019-04-05T11:08:23.746Z,21.70
2019-04-05T11:10:56.067Z,23.57
2019-04-05T11:13:28.761Z,24.27
2019-04-05T11:16:05.856Z,22.13
2019-04-05T11:18:41.326Z,19.93
2019-04-05T11:21:16.236Z,21.80
2019-04-05T11:23:48.929Z,20.10
2019-04-05T11:26:26.329Z,21.43
2019-04-05T11:28:56.866Z,19.87
2019-04-05T11:31:32.636Z,21.50
2019-04-05T11:34:07.040Z,19.67
2019-04-05T11:36:44.972Z,20.57
2019-04-05T11:39:24.119Z,23.10
2019-04-05T11:41:56.866Z,23.03
2019-04-05T11:44:29.965Z,20.80
2019-04-05T11:47:04.249Z,22.67
2019-04-05T11:49:50.826Z,21.63
2019-04-05T11:52:22.991Z,21.70
2019-04-05T11:54:57.991Z,23.97
2019-04-05T11:57:29.910Z,22.17
2019-04-05T12:00:02.614Z,21.07
2019-04-05T12:02:53.431Z,22.17
2019-04-05T12:05:27.151Z,21.73
2019-04-05T12:08:01.782Z,21.53
2019-04-05T12:10:35.942Z,22.67
2019-04-05T12:13:07.879Z,22.33
2019-04-05T12:15:42.416Z,21.13
2019-04-05T12:18:19.157Z,22.60
2019-04-05T12:20:59.102Z,20.87
2019-04-05T12:23:23.534Z,23.10
2019-04-05T12:25:55.337Z,22.83
2019-04-05T12:28:31.354Z,22.93
2019-04-05T12:31:04.266Z,23.50
2019-04-05T12:33:35.950Z,23.03
2019-04-05T12:36:10.095Z,23.23
2019-04-05T12:38:41.375Z,25.90
2019-04-05T12:41:13.215Z,24.10
2019-04-05T12:43:45.585Z,23.37
2019-04-05T12:46:18.514Z,24.53
2019-04-05T12:48:50.919Z,22.30
2019-04-05T12:51:25.495Z,24.87
2019-04-05T12:53:57.962Z,22.33
2019-04-05T12:56:30.208Z,22.87
2019-04-05T12:59:02.175Z,24.00
2019-04-05T13:01:33.726Z,22.10
2019-04-05T13:04:06.047Z,23.57
2019-04-05T13:06:42.341Z,23.03
2019-04-05T13:09:16.104Z,24.37
2019-04-05T13:11:56.446Z,23.70
2019-04-05T13:14:31.195Z,25.07
2019-04-05T13:17:03.630Z,23.33
2019-04-05T13:19:36.692Z,25.20
2019-04-05T13:22:09.556Z,25.33
2019-04-05T13:24:44.991Z,24.77
2019-04-05T13:27:28.274Z,25.47
2019-04-05T13:29:59.931Z,25.93
2019-04-05T13:32:33.947Z,24.83
2019-04-05T13:35:05.831Z,25.40
2019-04-05T13:37:37.750Z,25.27
2019-04-05T13:40:35.530Z,25.50
2019-04-05T13:43:10.067Z,26.13
2019-04-05T13:45:42.836Z,23.40
2019-04-05T13:48:16.687Z,25.00
2019-04-05T13:50:55.304Z,26.27
2019-04-05T13:53:38.419Z,24.20
2019-04-05T13:56:11.848Z,24.30
2019-04-05T13:58:46.167Z,25.50
2019-04-05T14:01:18.477Z,25.17
2019-04-05T14:03:51.667Z,24.57
2019-04-05T14:06:23.972Z,23.90
2019-04-05T14:08:55.845Z,24.97
2019-04-05T14:11:27.590Z,25.57
2019-04-05T14:13:59.528Z,27.60
2019-04-05T14:16:42.543Z,26.00
2019-04-05T14:19:35.624Z,25.27
2019-04-05T14:22:09.393Z,27.90
2019-04-05T14:24:43.209Z,25.30
2019-04-05T14:27:26.472Z,26.33
2019-04-05T14:30:03.079Z,27.93
2019-04-05T14:32:37.000Z,24.63
2019-04-05T14:35:09.637Z,26.97
2019-04-05T14:37:41.950Z,26.10
2019-04-05T14:40:17.594Z,28.47
2019-04-05T14:42:52.267Z,25.97
2019-04-05T14:45:24.320Z,26.67
2019-04-05T14:47:58.479Z,26.90
2019-04-05T14:50:30.625Z,25.10
2019-04-05T14:53:04.659Z,26.17
2019-04-05T14:55:36.761Z,25.93
2019-04-05T14:58:10.587Z,26.17
2019-04-05T15:00:48.287Z,26.23
2019-04-05T15:03:22.515Z,27.53
2019-04-05T15:05:55.191Z,27.53
2019-04-05T15:08:28.476Z,27.93
2019-04-05T15:11:01.222Z,29.10
2019-04-05T15:13:36.162Z,26.67
2019-04-05T15:16:07.778Z,26.53
2019-04-05T15:18:39.664Z,26.00
2019-04-05T15:21:12.185Z,28.17
2019-04-05T15:23:45.729Z,25.73
2019-04-05T15:26:20.499Z,26.87
2019-04-05T15:28:54.600Z,25.50
2019-04-05T15:31:28.756Z,24.93
2019-04-05T15:34:00.244Z,27.07
2019-04-05T15:36:32.602Z,26.90
2019-04-05T15:39:08.946Z,27.10
2019-04-05T15:41:40.390Z,24.47
2019-04-05T15:44:12.929Z,23.83
2019-04-05T15:46:46.016Z,23.80
2019-04-05T15:49:21.609Z,24.27
2019-04-05T15:51:58.905Z,23.00
2019-04-05T15:54:33.431Z,25.60
2019-04-05T15:57:10.671Z,24.20
2019-04-05T15:59:48.987Z,22.03
2019-04-05T16:02:20.821Z,22.47
2019-04-05T16:04:53.106Z,22.33
2019-04-05T16:07:27.806Z,22.63
2019-04-05T16:09:59.931Z,21.73
2019-04-05T16:12:31.419Z,22.83
2019-04-05T16:15:08.178Z,22.50
2019-04-05T16:17:42.696Z,21.10
2019-04-05T16:20:19.557Z,21.90
2019-04-05T16:22:58.314Z,24.17
2019-04-05T16:25:30.531Z,25.90
2019-04-05T16:28:02.567Z,23.73
2019-04-05T16:30:50.567Z,25.47
2019-04-05T16:33:22.812Z,24.40
2019-04-05T16:35:59.713Z,24.80
2019-04-05T16:38:31.720Z,26.87
2019-04-05T16:41:04.294Z,25.10
2019-04-05T16:43:36.699Z,26.63
2019-04-05T16:46:08.480Z,28.23
2019-04-05T16:48:41.009Z,27.90
2019-04-05T16:51:11.977Z,26.40
2019-04-05T16:54:03.567Z,27.53
2019-04-05T16:56:37.122Z,27.77
2019-04-05T16:59:08.697Z,29.40
2019-04-05T17:01:43.768Z,28.57
2019-04-05T17:04:17.298Z,27.80
2019-04-05T17:06:52.843Z,27.43
2019-04-05T17:09:26.085Z,29.20
2019-04-05T17:11:58.204Z,30.50
2019-04-05T17:14:31.524Z,29.37
2019-04-05T17:17:04.187Z,30.50
2019-04-05T17:19:45.197Z,29.23
2019-04-05T17:22:21.675Z,33.60
2019-04-05T17:24:53.657Z,30.40
2019-04-05T17:27:26.341Z,29.87
2019-04-05T17:29:59.823Z,30.07
2019-04-05T17:32:32.694Z,29.17
2019-04-05T17:35:07.016Z,31.97
2019-04-05T17:37:44.526Z,31.50
2019-04-05T17:40:24.867Z,32.40
2019-04-05T17:43:09.544Z,32.33
2019-04-05T17:45:44.552Z,30.40
2019-04-05T17:48:25.988Z,31.70
2019-04-05T17:51:26.201Z,30.33
2019-04-05T17:54:09.325Z,33.93
2019-04-05T17:56:50.899Z,33.57
2019-04-05T17:59:30.148Z,33.97
2019-04-05T18:02:19.732Z,32.80
2019-04-05T18:04:57.036Z,32.47
2019-04-05T18:07:36.234Z,33.13
2019-04-05T18:10:20.044Z,33.50
2019-04-05T18:12:58.101Z,36.47
2019-04-05T18:15:33.528Z,34.57
2019-04-05T18:18:07.308Z,37.37
2019-04-05T18:20:40.735Z,36.70
2019-04-05T18:23:24.783Z,38.10
2019-04-05T18:25:49.638Z,38.43
2019-04-05T18:28:21.669Z,37.70
2019-04-05T18:30:52.976Z,40.70
2019-04-05T18:33:29.278Z,39.80
2019-04-05T18:36:20.327Z,39.13
2019-04-05T18:38:54.785Z,41.13
2019-04-05T18:41:28.798Z,42.20
2019-04-05T18:44:02.455Z,43.37
2019-04-05T18:46:36.754Z,43.40
2019-04-05T18:49:12.919Z,42.30
2019-04-05T18:51:44.215Z,43.23
2019-04-05T18:54:18.750Z,41.33
2019-04-05T18:56:50.572Z,44.00
2019-04-05T18:59:22.467Z,43.30
2019-04-05T19:01:55.491Z,43.13
2019-04-05T19:04:27.418Z,45.90
2019-04-05T19:07:09.812Z,45.97
2019-04-05T19:09:47.979Z,43.87
2019-04-05T19:12:25.496Z,46.87
2019-04-05T19:15:01.450Z,44.57
2019-04-05T19:17:36.018Z,46.73
2019-04-05T19:20:09.949Z,47.90
2019-04-05T19:22:43.068Z,49.57
2019-04-05T19:25:18.401Z,48.83
2019-04-05T19:27:50.078Z,47.73
2019-04-05T19:48:31.431Z,51.87
2019-04-05T19:51:17.067Z,54.43
2019-04-05T19:54:01.099Z,48.70
2019-04-05T19:56:28.178Z,52.33
2019-04-05T19:58:59.159Z,56.10
2019-04-05T20:01:31.916Z,55.93
2019-04-05T20:04:04.116Z,60.60
2019-04-05T20:06:40.158Z,54.63
2019-04-05T20:09:12.098Z,56.73
2019-04-05T20:11:43.548Z,56.13
2019-04-05T20:14:18.227Z,59.27
2019-04-05T20:16:49.777Z,56.73
2019-04-05T20:19:24.759Z,57.90
2019-04-05T20:21:58.026Z,60.00
2019-04-05T20:24:34.008Z,59.90
2019-04-05T20:27:08.629Z,62.60
2019-04-05T20:29:41.495Z,57.23
2019-04-05T20:32:12.852Z,61.13
2019-04-05T20:34:45.362Z,60.63
2019-04-05T20:37:16.755Z,61.87
2019-04-05T20:39:47.617Z,63.77
2019-04-05T20:42:19.107Z,63.20
2019-04-05T20:44:50.208Z,61.67
2019-04-05T20:47:22.993Z,63.03
2019-04-05T20:49:53.740Z,61.80
2019-04-05T20:52:25.543Z,61.97
2019-04-05T20:54:56.321Z,59.83
2019-04-05T20:57:28.380Z,61.33
2019-04-05T21:00:01.749Z,57.87
2019-04-05T21:02:36.893Z,62.87
2019-04-05T21:05:08.426Z,60.03
2019-04-05T21:07:39.316Z,61.00
2019-04-05T21:10:13.343Z,60.97
2019-04-05T21:12:45.421Z,60.33
2019-04-05T21:15:16.497Z,60.10
2019-04-05T21:17:47.621Z,59.20
2019-04-05T21:20:20.411Z,54.17
2019-04-05T21:22:52.223Z,60.83
2019-04-05T21:25:23.271Z,61.53
2019-04-05T21:27:54.757Z,59.90
2019-04-05T21:30:25.384Z,59.97
2019-04-05T21:32:56.094Z,59.63
2019-04-05T21:35:26.717Z,58.90
2019-04-05T21:37:57.236Z,57.93
2019-04-05T21:40:27.857Z,56.90
2019-04-05T21:42:58.667Z,57.10
2019-04-05T21:45:39.393Z,62.50
2019-04-05T21:48:10.274Z,61.87
2019-04-05T21:50:44.113Z,87.17
2019-04-05T21:53:16.888Z,68.57
2019-04-05T21:55:49.023Z,64.53
2019-04-05T21:58:20.056Z,61.50
2019-04-05T22:01:01.783Z,60.97
2019-04-05T22:03:34.587Z,60.60
2019-04-05T22:06:05.450Z,65.43
2019-04-05T22:08:36.777Z,64.00
2019-04-05T22:11:08.353Z,61.67
2019-04-05T22:13:39.139Z,61.43
2019-04-05T22:16:09.909Z,63.60
2019-04-05T22:18:44.623Z,62.37
2019-04-05T22:21:34.652Z,64.23
2019-04-05T22:24:06.113Z,65.20
2019-04-05T22:26:36.898Z,68.43
2019-04-05T22:29:08.783Z,68.33
2019-04-05T22:31:40.027Z,65.00
2019-04-05T22:34:11.090Z,64.67
2019-04-05T22:36:41.850Z,65.40
2019-04-05T22:39:13.131Z,67.57
2019-04-05T22:41:45.644Z,64.17
2019-04-05T22:44:16.203Z,69.53
2019-04-05T22:46:46.857Z,65.53
2019-04-05T22:49:17.443Z,63.80
2019-04-05T22:51:48.887Z,68.67
2019-04-05T22:54:20.259Z,69.63
2019-04-05T22:56:52.872Z,63.80
2019-04-05T22:59:23.749Z,64.37
2019-04-05T23:01:55.270Z,63.60
2019-04-05T23:04:26.147Z,67.47
2019-04-05T23:06:56.968Z,63.77
2019-04-05T23:09:28.923Z,66.70
2019-04-05T23:11:59.668Z,65.90
2019-04-05T23:14:30.467Z,68.47
2019-04-05T23:17:01.176Z,66.90
2019-04-05T23:19:33.307Z,66.00
2019-04-05T23:22:04.970Z,66.73
2019-04-05T23:24:35.957Z,67.63
2019-04-05T23:27:06.799Z,65.80
2019-04-05T23:29:37.458Z,68.10
2019-04-05T23:32:08.061Z,66.13
2019-04-05T23:34:38.974Z,65.03
2019-04-05T23:37:10.003Z,71.40
2019-04-05T23:39:40.542Z,68.53
2019-04-05T23:42:11.526Z,67.33
2019-04-05T23:44:42.486Z,68.87
2019-04-05T23:47:13.364Z,69.10
2019-04-05T23:49:44.822Z,68.00
2019-04-05T23:52:15.614Z,69.23
2019-04-05T23:54:46.705Z,65.60
2019-04-05T23:57:17.554Z,69.20
2019-04-05T23:59:49.317Z,67.77
